sensor_id;sensor_type;location;lat;lon;timestamp;P1;durP1;ratioP1;P2;durP2;ratioP2
8419;SDS011;4247;48.550;8.822;2022-07-09T00:01:27;1.23;;;0.87;;
8419;SDS011;4247;48.550;8.822;2022-07-09T00:03:54;4.57;;;0.87;;
8419;SDS011;4247;48.550;8.822;2022-07-09T00:06:21;2.93;;;1.13;;
8419;SDS011;4247;48.550;8.822;2022-07-09T00:08:48;1.67;;;1.10;;
8419;SDS011;4247;48.550;8.822;2022-07-09T00:11:15;1.33;;;1.00;;
8419;SDS011;4247;48.550;8.822;2022-07-09T00:13:42;2.83;;;1.07;;
8419;SDS011;4247;48.550;8.822;2022-07-09T00:16:10;3.80;;;1.07;;
8419;SDS011;4247;48.550;8.822;2022-07-09T00:18:37;0.80;;;0.80;;
8419;SDS011;4247;48.550;8.822;2022-07-09T00:21:19;2.23;;;1.03;;
8419;SDS011;4247;48.550;8.822;2022-07-09T00:23:46;1.70;;;1.07;;
8419;SDS011;4247;48.550;8.822;2022-07-09T00:26:13;0.97;;;0.97;;
8419;SDS011;4247;48.550;8.822;2022-07-09T00:28:40;1.90;;;0.97;;
8419;SDS011;4247;48.550;8.822;2022-07-09T00:31:07;0.90;;;0.90;;
8419;SDS011;4247;48.550;8.822;2022-07-09T00:33:38;2.93;;;1.00;;
8419;SDS011;4247;48.550;8.822;2022-07-09T00:36:05;2.93;;;1.17;;
8419;SDS011;4247;48.550;8.822;2022-07-09T00:38:32;2.10;;;1.00;;
8419;SDS011;4247;48.550;8.822;2022-07-09T00:40:59;5.93;;;0.90;;
8419;SDS011;4247;48.550;8.822;2022-07-09T00:43:26;1.30;;;0.93;;
8419;SDS011;4247;48.550;8.822;2022-07-09T00:46:02;1.60;;;1.00;;
8419;SDS011;4247;48.550;8.822;2022-07-09T00:48:29;5.40;;;1.00;;
8419;SDS011;4247;48.550;8.822;2022-07-09T00:50:57;5.63;;;1.63;;
8419;SDS011;4247;48.550;8.822;2022-07-09T00:53:24;3.40;;;0.83;;
8419;SDS011;4247;48.550;8.822;2022-07-09T00:55:52;1.70;;;1.00;;
8419;SDS011;4247;48.550;8.822;2022-07-09T00:58:20;3.17;;;1.20;;
8419;SDS011;4247;48.550;8.822;2022-07-09T01:00:48;3.00;;;1.00;;
8419;SDS011;4247;48.550;8.822;2022-07-09T01:03:15;7.53;;;1.23;;
8419;SDS011;4247;48.550;8.822;2022-07-09T01:05:42;2.83;;;1.23;;
8419;SDS011;4247;48.550;8.822;2022-07-09T01:08:10;3.53;;;0.90;;
8419;SDS011;4247;48.550;8.822;2022-07-09T01:10:37;1.67;;;1.10;;
8419;SDS011;4247;48.550;8.822;2022-07-09T01:13:04;1.40;;;0.90;;
8419;SDS011;4247;48.550;8.822;2022-07-09T01:15:32;0.70;;;0.70;;
8419;SDS011;4247;48.550;8.822;2022-07-09T01:17:59;0.80;;;0.80;;
8419;SDS011;4247;48.550;8.822;2022-07-09T01:20:28;4.27;;;1.20;;
8419;SDS011;4247;48.550;8.822;2022-07-09T01:22:55;5.20;;;1.17;;
8419;SDS011;4247;48.550;8.822;2022-07-09T01:25:25;4.87;;;1.20;;
8419;SDS011;4247;48.550;8.822;2022-07-09T01:27:58;1.50;;;1.03;;
8419;SDS011;4247;48.550;8.822;2022-07-09T01:30:25;4.97;;;1.20;;
8419;SDS011;4247;48.550;8.822;2022-07-09T01:32:53;5.03;;;1.27;;
8419;SDS011;4247;48.550;8.822;2022-07-09T01:35:20;1.27;;;1.00;;
8419;SDS011;4247;48.550;8.822;2022-07-09T01:37:49;4.77;;;1.60;;
8419;SDS011;4247;48.550;8.822;2022-07-09T01:40:16;2.60;;;1.57;;
8419;SDS011;4247;48.550;8.822;2022-07-09T01:42:43;1.97;;;1.10;;
8419;SDS011;4247;48.550;8.822;2022-07-09T01:45:10;1.00;;;0.90;;
8419;SDS011;4247;48.550;8.822;2022-07-09T01:47:37;2.23;;;1.40;;
8419;SDS011;4247;48.550;8.822;2022-07-09T01:50:04;2.50;;;0.70;;
8419;SDS011;4247;48.550;8.822;2022-07-09T01:52:32;3.97;;;1.10;;
8419;SDS011;4247;48.550;8.822;2022-07-09T01:55:01;3.87;;;1.33;;
8419;SDS011;4247;48.550;8.822;2022-07-09T01:57:29;3.20;;;1.00;;
8419;SDS011;4247;48.550;8.822;2022-07-09T01:59:56;1.23;;;0.90;;
8419;SDS011;4247;48.550;8.822;2022-07-09T02:02:22;1.77;;;1.00;;
8419;SDS011;4247;48.550;8.822;2022-07-09T02:04:49;1.70;;;1.20;;
8419;SDS011;4247;48.550;8.822;2022-07-09T02:07:16;2.97;;;0.80;;
8419;SDS011;4247;48.550;8.822;2022-07-09T02:09:43;4.63;;;0.93;;
8419;SDS011;4247;48.550;8.822;2022-07-09T02:12:11;2.50;;;1.00;;
8419;SDS011;4247;48.550;8.822;2022-07-09T02:14:38;1.53;;;0.90;;
8419;SDS011;4247;48.550;8.822;2022-07-09T02:17:05;2.67;;;1.00;;
8419;SDS011;4247;48.550;8.822;2022-07-09T02:19:32;14.93;;;1.63;;
8419;SDS011;4247;48.550;8.822;2022-07-09T02:21:59;2.20;;;1.27;;
8419;SDS011;4247;48.550;8.822;2022-07-09T02:24:26;4.63;;;1.50;;
8419;SDS011;4247;48.550;8.822;2022-07-09T02:26:53;2.43;;;1.07;;
8419;SDS011;4247;48.550;8.822;2022-07-09T02:29:21;1.20;;;1.00;;
8419;SDS011;4247;48.550;8.822;2022-07-09T02:31:48;3.13;;;1.10;;
8419;SDS011;4247;48.550;8.822;2022-07-09T02:34:15;3.43;;;1.63;;
8419;SDS011;4247;48.550;8.822;2022-07-09T02:36:42;1.20;;;0.80;;
8419;SDS011;4247;48.550;8.822;2022-07-09T02:39:10;4.23;;;1.60;;
8419;SDS011;4247;48.550;8.822;2022-07-09T02:41:37;5.13;;;1.53;;
8419;SDS011;4247;48.550;8.822;2022-07-09T02:44:04;3.87;;;1.10;;
8419;SDS011;4247;48.550;8.822;2022-07-09T02:46:32;2.03;;;1.93;;
8419;SDS011;4247;48.550;8.822;2022-07-09T02:48:59;2.47;;;1.07;;
8419;SDS011;4247;48.550;8.822;2022-07-09T02:51:26;4.10;;;1.10;;
8419;SDS011;4247;48.550;8.822;2022-07-09T02:53:53;0.80;;;0.70;;
8419;SDS011;4247;48.550;8.822;2022-07-09T02:56:20;1.50;;;1.13;;
8419;SDS011;4247;48.550;8.822;2022-07-09T02:58:47;1.57;;;1.00;;
8419;SDS011;4247;48.550;8.822;2022-07-09T03:01:14;2.90;;;1.10;;
8419;SDS011;4247;48.550;8.822;2022-07-09T03:03:42;2.10;;;1.10;;
8419;SDS011;4247;48.550;8.822;2022-07-09T03:06:09;1.93;;;1.03;;
8419;SDS011;4247;48.550;8.822;2022-07-09T03:08:36;1.83;;;1.20;;
8419;SDS011;4247;48.550;8.822;2022-07-09T03:11:03;2.10;;;1.10;;
8419;SDS011;4247;48.550;8.822;2022-07-09T03:13:31;1.27;;;1.00;;
8419;SDS011;4247;48.550;8.822;2022-07-09T03:15:58;1.50;;;0.80;;
8419;SDS011;4247;48.550;8.822;2022-07-09T03:18:25;3.13;;;1.03;;
8419;SDS011;4247;48.550;8.822;2022-07-09T03:20:53;1.33;;;1.10;;
8419;SDS011;4247;48.550;8.822;2022-07-09T03:23:20;2.40;;;1.30;;
8419;SDS011;4247;48.550;8.822;2022-07-09T03:25:47;1.80;;;1.00;;
8419;SDS011;4247;48.550;8.822;2022-07-09T03:28:14;4.63;;;1.10;;
8419;SDS011;4247;48.550;8.822;2022-07-09T03:30:42;1.67;;;0.90;;
8419;SDS011;4247;48.550;8.822;2022-07-09T03:33:09;4.00;;;1.10;;
8419;SDS011;4247;48.550;8.822;2022-07-09T03:35:36;0.90;;;0.90;;
8419;SDS011;4247;48.550;8.822;2022-07-09T03:38:06;21.73;;;1.87;;
8419;SDS011;4247;48.550;8.822;2022-07-09T03:40:33;7.37;;;1.20;;
8419;SDS011;4247;48.550;8.822;2022-07-09T03:43:00;3.43;;;1.23;;
8419;SDS011;4247;48.550;8.822;2022-07-09T03:45:27;4.40;;;1.20;;
8419;SDS011;4247;48.550;8.822;2022-07-09T03:47:54;4.00;;;1.50;;
8419;SDS011;4247;48.550;8.822;2022-07-09T03:50:21;3.53;;;1.47;;
8419;SDS011;4247;48.550;8.822;2022-07-09T03:52:48;2.20;;;1.40;;
8419;SDS011;4247;48.550;8.822;2022-07-09T03:55:16;3.33;;;1.10;;
8419;SDS011;4247;48.550;8.822;2022-07-09T03:57:43;2.50;;;1.30;;
8419;SDS011;4247;48.550;8.822;2022-07-09T04:00:11;1.50;;;1.40;;
8419;SDS011;4247;48.550;8.822;2022-07-09T04:02:57;1.23;;;0.90;;
8419;SDS011;4247;48.550;8.822;2022-07-09T04:05:24;8.30;;;1.23;;
8419;SDS011;4247;48.550;8.822;2022-07-09T04:07:50;2.47;;;0.90;;
8419;SDS011;4247;48.550;8.822;2022-07-09T04:10:19;2.97;;;1.10;;
8419;SDS011;4247;48.550;8.822;2022-07-09T04:12:46;4.30;;;1.00;;
8419;SDS011;4247;48.550;8.822;2022-07-09T04:15:13;1.30;;;1.20;;
8419;SDS011;4247;48.550;8.822;2022-07-09T04:17:40;1.43;;;1.33;;
8419;SDS011;4247;48.550;8.822;2022-07-09T04:20:07;5.87;;;1.10;;
8419;SDS011;4247;48.550;8.822;2022-07-09T04:22:35;6.50;;;2.13;;
8419;SDS011;4247;48.550;8.822;2022-07-09T04:25:02;1.50;;;1.20;;
8419;SDS011;4247;48.550;8.822;2022-07-09T04:27:31;2.13;;;1.50;;
8419;SDS011;4247;48.550;8.822;2022-07-09T04:29:59;9.20;;;1.40;;
8419;SDS011;4247;48.550;8.822;2022-07-09T04:32:26;2.73;;;1.60;;
8419;SDS011;4247;48.550;8.822;2022-07-09T04:34:53;2.03;;;1.20;;
8419;SDS011;4247;48.550;8.822;2022-07-09T04:37:21;2.97;;;1.10;;
8419;SDS011;4247;48.550;8.822;2022-07-09T04:39:48;2.20;;;1.60;;
8419;SDS011;4247;48.550;8.822;2022-07-09T04:42:15;5.03;;;1.37;;
8419;SDS011;4247;48.550;8.822;2022-07-09T04:44:43;2.23;;;1.23;;
8419;SDS011;4247;48.550;8.822;2022-07-09T04:47:10;1.73;;;1.33;;
8419;SDS011;4247;48.550;8.822;2022-07-09T04:49:37;4.50;;;1.43;;
8419;SDS011;4247;48.550;8.822;2022-07-09T04:52:05;2.67;;;1.13;;
8419;SDS011;4247;48.550;8.822;2022-07-09T04:54:32;3.40;;;1.20;;
8419;SDS011;4247;48.550;8.822;2022-07-09T04:57:02;3.67;;;1.30;;
8419;SDS011;4247;48.550;8.822;2022-07-09T04:59:29;4.33;;;1.17;;
8419;SDS011;4247;48.550;8.822;2022-07-09T05:01:57;1.53;;;1.20;;
8419;SDS011;4247;48.550;8.822;2022-07-09T05:04:24;1.00;;;0.90;;
8419;SDS011;4247;48.550;8.822;2022-07-09T05:06:51;2.27;;;1.40;;
8419;SDS011;4247;48.550;8.822;2022-07-09T05:09:19;1.13;;;1.00;;
8419;SDS011;4247;48.550;8.822;2022-07-09T05:11:46;1.40;;;1.30;;
8419;SDS011;4247;48.550;8.822;2022-07-09T05:14:12;2.23;;;1.50;;
8419;SDS011;4247;48.550;8.822;2022-07-09T05:16:39;2.10;;;1.40;;
8419;SDS011;4247;48.550;8.822;2022-07-09T05:19:11;6.00;;;1.40;;
8419;SDS011;4247;48.550;8.822;2022-07-09T05:21:37;3.73;;;1.40;;
8419;SDS011;4247;48.550;8.822;2022-07-09T05:24:05;1.70;;;1.50;;
8419;SDS011;4247;48.550;8.822;2022-07-09T05:26:32;1.60;;;1.50;;
8419;SDS011;4247;48.550;8.822;2022-07-09T05:28:59;3.73;;;1.40;;
8419;SDS011;4247;48.550;8.822;2022-07-09T05:31:29;3.10;;;1.33;;
8419;SDS011;4247;48.550;8.822;2022-07-09T05:33:56;2.20;;;1.43;;
8419;SDS011;4247;48.550;8.822;2022-07-09T05:36:26;4.77;;;1.57;;
8419;SDS011;4247;48.550;8.822;2022-07-09T05:38:55;3.73;;;1.20;;
8419;SDS011;4247;48.550;8.822;2022-07-09T05:41:21;2.07;;;1.33;;
8419;SDS011;4247;48.550;8.822;2022-07-09T05:43:50;1.20;;;1.10;;
8419;SDS011;4247;48.550;8.822;2022-07-09T05:46:17;1.53;;;1.37;;
8419;SDS011;4247;48.550;8.822;2022-07-09T05:48:44;2.07;;;1.40;;
8419;SDS011;4247;48.550;8.822;2022-07-09T05:51:11;4.30;;;1.60;;
8419;SDS011;4247;48.550;8.822;2022-07-09T05:53:39;2.30;;;1.60;;
8419;SDS011;4247;48.550;8.822;2022-07-09T05:56:06;6.23;;;1.10;;
8419;SDS011;4247;48.550;8.822;2022-07-09T05:58:33;5.73;;;2.87;;
8419;SDS011;4247;48.550;8.822;2022-07-09T06:01:01;2.50;;;1.10;;
8419;SDS011;4247;48.550;8.822;2022-07-09T06:03:28;3.43;;;1.10;;
8419;SDS011;4247;48.550;8.822;2022-07-09T06:05:54;5.30;;;1.20;;
8419;SDS011;4247;48.550;8.822;2022-07-09T06:08:22;2.50;;;1.60;;
8419;SDS011;4247;48.550;8.822;2022-07-09T06:10:51;3.70;;;1.10;;
8419;SDS011;4247;48.550;8.822;2022-07-09T06:13:18;4.37;;;1.47;;
8419;SDS011;4247;48.550;8.822;2022-07-09T06:15:45;6.83;;;1.50;;
8419;SDS011;4247;48.550;8.822;2022-07-09T06:18:12;5.40;;;1.40;;
8419;SDS011;4247;48.550;8.822;2022-07-09T06:20:39;0.90;;;0.90;;
8419;SDS011;4247;48.550;8.822;2022-07-09T06:23:06;2.23;;;1.10;;
8419;SDS011;4247;48.550;8.822;2022-07-09T06:25:33;4.00;;;1.20;;
8419;SDS011;4247;48.550;8.822;2022-07-09T06:28:02;3.10;;;1.30;;
8419;SDS011;4247;48.550;8.822;2022-07-09T06:30:29;20.33;;;1.53;;
8419;SDS011;4247;48.550;8.822;2022-07-09T06:32:56;5.00;;;1.40;;
8419;SDS011;4247;48.550;8.822;2022-07-09T06:35:23;2.77;;;1.10;;
8419;SDS011;4247;48.550;8.822;2022-07-09T06:37:49;3.43;;;1.10;;
8419;SDS011;4247;48.550;8.822;2022-07-09T06:40:16;0.80;;;0.80;;
8419;SDS011;4247;48.550;8.822;2022-07-09T06:42:43;3.40;;;1.03;;
8419;SDS011;4247;48.550;8.822;2022-07-09T06:45:11;5.70;;;1.50;;
8419;SDS011;4247;48.550;8.822;2022-07-09T06:47:39;1.40;;;1.20;;
8419;SDS011;4247;48.550;8.822;2022-07-09T06:50:06;3.17;;;1.00;;
8419;SDS011;4247;48.550;8.822;2022-07-09T06:52:34;3.20;;;1.20;;
8419;SDS011;4247;48.550;8.822;2022-07-09T06:55:01;2.80;;;1.00;;
8419;SDS011;4247;48.550;8.822;2022-07-09T06:57:28;1.60;;;0.90;;
8419;SDS011;4247;48.550;8.822;2022-07-09T06:59:55;2.97;;;1.07;;
8419;SDS011;4247;48.550;8.822;2022-07-09T07:02:24;5.33;;;1.30;;
8419;SDS011;4247;48.550;8.822;2022-07-09T07:04:50;2.10;;;0.90;;
8419;SDS011;4247;48.550;8.822;2022-07-09T07:07:23;3.60;;;0.93;;
8419;SDS011;4247;48.550;8.822;2022-07-09T07:09:49;3.73;;;0.90;;
8419;SDS011;4247;48.550;8.822;2022-07-09T07:12:17;2.07;;;0.80;;
8419;SDS011;4247;48.550;8.822;2022-07-09T07:14:43;3.17;;;1.03;;
8419;SDS011;4247;48.550;8.822;2022-07-09T07:17:10;2.97;;;0.73;;
8419;SDS011;4247;48.550;8.822;2022-07-09T07:19:40;0.97;;;0.97;;
8419;SDS011;4247;48.550;8.822;2022-07-09T07:22:07;7.40;;;0.90;;
8419;SDS011;4247;48.550;8.822;2022-07-09T07:24:34;2.50;;;0.83;;
8419;SDS011;4247;48.550;8.822;2022-07-09T07:27:01;2.80;;;1.10;;
8419;SDS011;4247;48.550;8.822;2022-07-09T07:29:27;1.70;;;1.13;;
8419;SDS011;4247;48.550;8.822;2022-07-09T07:32:00;0.80;;;0.80;;
8419;SDS011;4247;48.550;8.822;2022-07-09T07:34:26;5.20;;;1.23;;
8419;SDS011;4247;48.550;8.822;2022-07-09T07:36:55;3.20;;;1.00;;
8419;SDS011;4247;48.550;8.822;2022-07-09T07:39:22;1.50;;;0.80;;
8419;SDS011;4247;48.550;8.822;2022-07-09T07:41:50;2.77;;;1.53;;
8419;SDS011;4247;48.550;8.822;2022-07-09T07:44:17;2.97;;;1.50;;
8419;SDS011;4247;48.550;8.822;2022-07-09T07:46:44;3.17;;;0.70;;
8419;SDS011;4247;48.550;8.822;2022-07-09T07:49:11;1.10;;;0.90;;
8419;SDS011;4247;48.550;8.822;2022-07-09T07:51:38;2.77;;;1.00;;
8419;SDS011;4247;48.550;8.822;2022-07-09T07:54:06;1.40;;;0.70;;
8419;SDS011;4247;48.550;8.822;2022-07-09T07:56:33;0.80;;;0.60;;
8419;SDS011;4247;48.550;8.822;2022-07-09T07:59:01;2.50;;;0.87;;
8419;SDS011;4247;48.550;8.822;2022-07-09T08:01:28;4.37;;;0.90;;
8419;SDS011;4247;48.550;8.822;2022-07-09T08:03:55;1.23;;;0.77;;
8419;SDS011;4247;48.550;8.822;2022-07-09T08:06:22;3.37;;;0.83;;
8419;SDS011;4247;48.550;8.822;2022-07-09T08:08:49;1.47;;;0.60;;
8419;SDS011;4247;48.550;8.822;2022-07-09T08:11:17;1.90;;;0.67;;
8419;SDS011;4247;48.550;8.822;2022-07-09T08:13:44;1.93;;;0.67;;
8419;SDS011;4247;48.550;8.822;2022-07-09T08:16:11;1.20;;;0.77;;
8419;SDS011;4247;48.550;8.822;2022-07-09T08:18:38;0.97;;;0.50;;
8419;SDS011;4247;48.550;8.822;2022-07-09T08:21:05;1.50;;;0.50;;
8419;SDS011;4247;48.550;8.822;2022-07-09T08:23:34;2.17;;;0.50;;
8419;SDS011;4247;48.550;8.822;2022-07-09T08:26:17;2.10;;;0.97;;
8419;SDS011;4247;48.550;8.822;2022-07-09T08:28:45;0.97;;;0.60;;
8419;SDS011;4247;48.550;8.822;2022-07-09T08:31:12;1.47;;;0.47;;
8419;SDS011;4247;48.550;8.822;2022-07-09T08:33:38;1.53;;;0.50;;
8419;SDS011;4247;48.550;8.822;2022-07-09T08:36:05;9.67;;;0.60;;
8419;SDS011;4247;48.550;8.822;2022-07-09T08:38:32;3.13;;;0.50;;
8419;SDS011;4247;48.550;8.822;2022-07-09T08:40:59;0.77;;;0.50;;
8419;SDS011;4247;48.550;8.822;2022-07-09T08:43:28;3.83;;;0.40;;
8419;SDS011;4247;48.550;8.822;2022-07-09T08:45:58;2.53;;;0.60;;
8419;SDS011;4247;48.550;8.822;2022-07-09T08:48:26;0.63;;;0.37;;
8419;SDS011;4247;48.550;8.822;2022-07-09T08:50:52;9.77;;;0.73;;
8419;SDS011;4247;48.550;8.822;2022-07-09T08:53:20;2.20;;;0.70;;
8419;SDS011;4247;48.550;8.822;2022-07-09T08:55:47;1.57;;;0.60;;
8419;SDS011;4247;48.550;8.822;2022-07-09T08:58:14;1.97;;;0.43;;
8419;SDS011;4247;48.550;8.822;2022-07-09T09:00:42;0.90;;;0.47;;
8419;SDS011;4247;48.550;8.822;2022-07-09T09:03:09;4.50;;;1.07;;
8419;SDS011;4247;48.550;8.822;2022-07-09T09:05:41;0.80;;;0.70;;
8419;SDS011;4247;48.550;8.822;2022-07-09T09:08:18;2.13;;;0.50;;
8419;SDS011;4247;48.550;8.822;2022-07-09T09:10:47;0.73;;;0.40;;
8419;SDS011;4247;48.550;8.822;2022-07-09T09:13:14;1.77;;;0.40;;
8419;SDS011;4247;48.550;8.822;2022-07-09T09:15:46;0.40;;;0.40;;
8419;SDS011;4247;48.550;8.822;2022-07-09T09:18:13;1.77;;;0.70;;
8419;SDS011;4247;48.550;8.822;2022-07-09T09:20:44;2.07;;;0.43;;
8419;SDS011;4247;48.550;8.822;2022-07-09T09:23:15;3.37;;;0.50;;
8419;SDS011;4247;48.550;8.822;2022-07-09T09:25:42;0.50;;;0.50;;
8419;SDS011;4247;48.550;8.822;2022-07-09T09:28:09;1.43;;;0.50;;
8419;SDS011;4247;48.550;8.822;2022-07-09T09:30:40;1.33;;;0.50;;
8419;SDS011;4247;48.550;8.822;2022-07-09T09:33:09;0.37;;;0.37;;
8419;SDS011;4247;48.550;8.822;2022-07-09T09:35:42;0.63;;;0.50;;
8419;SDS011;4247;48.550;8.822;2022-07-09T09:38:10;0.40;;;0.40;;
8419;SDS011;4247;48.550;8.822;2022-07-09T09:40:37;0.60;;;0.40;;
8419;SDS011;4247;48.550;8.822;2022-07-09T09:43:05;0.87;;;0.40;;
8419;SDS011;4247;48.550;8.822;2022-07-09T09:45:33;0.30;;;0.30;;
8419;SDS011;4247;48.550;8.822;2022-07-09T09:48:01;1.77;;;0.47;;
8419;SDS011;4247;48.550;8.822;2022-07-09T09:50:32;0.30;;;0.27;;
8419;SDS011;4247;48.550;8.822;2022-07-09T09:52:59;0.30;;;0.30;;
8419;SDS011;4247;48.550;8.822;2022-07-09T09:55:28;1.77;;;0.40;;
8419;SDS011;4247;48.550;8.822;2022-07-09T09:57:56;1.13;;;0.50;;
8419;SDS011;4247;48.550;8.822;2022-07-09T10:00:23;0.77;;;0.50;;
8419;SDS011;4247;48.550;8.822;2022-07-09T10:02:51;2.20;;;0.40;;
8419;SDS011;4247;48.550;8.822;2022-07-09T10:05:18;1.27;;;0.40;;
8419;SDS011;4247;48.550;8.822;2022-07-09T10:07:48;0.53;;;0.50;;
8419;SDS011;4247;48.550;8.822;2022-07-09T10:10:18;0.63;;;0.50;;
8419;SDS011;4247;48.550;8.822;2022-07-09T10:12:45;3.10;;;0.50;;
8419;SDS011;4247;48.550;8.822;2022-07-09T10:15:20;1.30;;;0.50;;
8419;SDS011;4247;48.550;8.822;2022-07-09T10:17:50;3.30;;;0.47;;
8419;SDS011;4247;48.550;8.822;2022-07-09T10:20:28;0.93;;;0.30;;
8419;SDS011;4247;48.550;8.822;2022-07-09T10:22:58;1.83;;;0.40;;
8419;SDS011;4247;48.550;8.822;2022-07-09T10:25:27;1.07;;;0.27;;
8419;SDS011;4247;48.550;8.822;2022-07-09T10:27:55;1.30;;;0.50;;
8419;SDS011;4247;48.550;8.822;2022-07-09T10:30:23;2.07;;;0.53;;
8419;SDS011;4247;48.550;8.822;2022-07-09T10:33:03;4.67;;;0.50;;
8419;SDS011;4247;48.550;8.822;2022-07-09T10:35:31;0.77;;;0.40;;
8419;SDS011;4247;48.550;8.822;2022-07-09T10:38:06;0.50;;;0.30;;
8419;SDS011;4247;48.550;8.822;2022-07-09T10:40:38;1.90;;;0.30;;
8419;SDS011;4247;48.550;8.822;2022-07-09T10:43:06;1.80;;;0.40;;
8419;SDS011;4247;48.550;8.822;2022-07-09T10:45:37;1.20;;;0.50;;
8419;SDS011;4247;48.550;8.822;2022-07-09T10:48:06;0.40;;;0.40;;
8419;SDS011;4247;48.550;8.822;2022-07-09T10:50:35;2.57;;;0.50;;
8419;SDS011;4247;48.550;8.822;2022-07-09T10:53:04;1.10;;;0.37;;
8419;SDS011;4247;48.550;8.822;2022-07-09T10:55:33;2.43;;;0.50;;
8419;SDS011;4247;48.550;8.822;2022-07-09T10:58:00;3.27;;;0.40;;
8419;SDS011;4247;48.550;8.822;2022-07-09T11:00:32;2.40;;;0.60;;
8419;SDS011;4247;48.550;8.822;2022-07-09T11:03:00;2.10;;;0.40;;
8419;SDS011;4247;48.550;8.822;2022-07-09T11:05:29;1.40;;;0.53;;
8419;SDS011;4247;48.550;8.822;2022-07-09T11:07:57;0.50;;;0.30;;
8419;SDS011;4247;48.550;8.822;2022-07-09T11:10:26;0.53;;;0.33;;
8419;SDS011;4247;48.550;8.822;2022-07-09T11:12:54;1.27;;;0.23;;
8419;SDS011;4247;48.550;8.822;2022-07-09T11:15:24;1.60;;;0.60;;
8419;SDS011;4247;48.550;8.822;2022-07-09T11:18:02;2.83;;;0.50;;
8419;SDS011;4247;48.550;8.822;2022-07-09T11:20:31;1.70;;;0.67;;
8419;SDS011;4247;48.550;8.822;2022-07-09T11:22:59;2.33;;;0.80;;
8419;SDS011;4247;48.550;8.822;2022-07-09T11:25:28;4.67;;;0.30;;
8419;SDS011;4247;48.550;8.822;2022-07-09T11:27:57;1.03;;;0.37;;
8419;SDS011;4247;48.550;8.822;2022-07-09T11:30:26;0.63;;;0.30;;
8419;SDS011;4247;48.550;8.822;2022-07-09T11:32:54;0.60;;;0.40;;
8419;SDS011;4247;48.550;8.822;2022-07-09T11:35:25;0.63;;;0.40;;
8419;SDS011;4247;48.550;8.822;2022-07-09T11:37:55;1.67;;;0.40;;
8419;SDS011;4247;48.550;8.822;2022-07-09T11:40:22;0.80;;;0.43;;
8419;SDS011;4247;48.550;8.822;2022-07-09T11:42:50;1.67;;;0.40;;
8419;SDS011;4247;48.550;8.822;2022-07-09T11:45:21;0.57;;;0.50;;
8419;SDS011;4247;48.550;8.822;2022-07-09T11:47:49;2.53;;;0.70;;
8419;SDS011;4247;48.550;8.822;2022-07-09T11:50:18;1.27;;;0.30;;
8419;SDS011;4247;48.550;8.822;2022-07-09T11:52:45;2.00;;;0.70;;
8419;SDS011;4247;48.550;8.822;2022-07-09T11:55:14;1.13;;;0.30;;
8419;SDS011;4247;48.550;8.822;2022-07-09T11:57:50;0.93;;;0.40;;
8419;SDS011;4247;48.550;8.822;2022-07-09T12:00:23;1.60;;;0.70;;
8419;SDS011;4247;48.550;8.822;2022-07-09T12:02:52;0.60;;;0.40;;
8419;SDS011;4247;48.550;8.822;2022-07-09T12:05:26;0.40;;;0.33;;
8419;SDS011;4247;48.550;8.822;2022-07-09T12:07:59;1.43;;;0.50;;
8419;SDS011;4247;48.550;8.822;2022-07-09T12:10:28;1.17;;;0.30;;
8419;SDS011;4247;48.550;8.822;2022-07-09T12:12:56;2.07;;;0.40;;
8419;SDS011;4247;48.550;8.822;2022-07-09T12:15:24;0.37;;;0.30;;
8419;SDS011;4247;48.550;8.822;2022-07-09T12:17:51;2.37;;;0.30;;
8419;SDS011;4247;48.550;8.822;2022-07-09T12:20:23;2.30;;;0.60;;
8419;SDS011;4247;48.550;8.822;2022-07-09T12:22:51;0.83;;;0.40;;
8419;SDS011;4247;48.550;8.822;2022-07-09T12:25:19;2.10;;;0.40;;
8419;SDS011;4247;48.550;8.822;2022-07-09T12:27:46;0.93;;;0.30;;
8419;SDS011;4247;48.550;8.822;2022-07-09T12:30:14;1.20;;;0.40;;
8419;SDS011;4247;48.550;8.822;2022-07-09T12:32:43;2.67;;;0.30;;
8419;SDS011;4247;48.550;8.822;2022-07-09T12:35:11;0.97;;;0.30;;
8419;SDS011;4247;48.550;8.822;2022-07-09T12:37:38;2.20;;;0.50;;
8419;SDS011;4247;48.550;8.822;2022-07-09T12:40:06;0.57;;;0.20;;
8419;SDS011;4247;48.550;8.822;2022-07-09T12:42:41;0.70;;;0.30;;
8419;SDS011;4247;48.550;8.822;2022-07-09T12:45:08;0.50;;;0.30;;
8419;SDS011;4247;48.550;8.822;2022-07-09T12:47:37;0.60;;;0.40;;
8419;SDS011;4247;48.550;8.822;2022-07-09T12:50:06;2.30;;;0.40;;
8419;SDS011;4247;48.550;8.822;2022-07-09T12:52:34;2.20;;;0.33;;
8419;SDS011;4247;48.550;8.822;2022-07-09T12:55:02;0.40;;;0.40;;
8419;SDS011;4247;48.550;8.822;2022-07-09T12:57:30;1.43;;;0.47;;
8419;SDS011;4247;48.550;8.822;2022-07-09T12:59:57;0.70;;;0.40;;
8419;SDS011;4247;48.550;8.822;2022-07-09T13:02:24;0.30;;;0.30;;
8419;SDS011;4247;48.550;8.822;2022-07-09T13:04:52;1.47;;;0.70;;
8419;SDS011;4247;48.550;8.822;2022-07-09T13:07:21;0.90;;;0.50;;
8419;SDS011;4247;48.550;8.822;2022-07-09T13:09:47;0.87;;;0.63;;
8419;SDS011;4247;48.550;8.822;2022-07-09T13:12:14;2.47;;;1.10;;
8419;SDS011;4247;48.550;8.822;2022-07-09T13:14:41;1.53;;;0.30;;
8419;SDS011;4247;48.550;8.822;2022-07-09T13:17:09;0.30;;;0.30;;
8419;SDS011;4247;48.550;8.822;2022-07-09T13:19:36;0.73;;;0.53;;
8419;SDS011;4247;48.550;8.822;2022-07-09T13:22:03;2.47;;;0.40;;
8419;SDS011;4247;48.550;8.822;2022-07-09T13:24:33;0.90;;;0.20;;
8419;SDS011;4247;48.550;8.822;2022-07-09T13:27:00;1.00;;;0.30;;
8419;SDS011;4247;48.550;8.822;2022-07-09T13:29:32;2.03;;;0.43;;
8419;SDS011;4247;48.550;8.822;2022-07-09T13:32:00;0.60;;;0.60;;
8419;SDS011;4247;48.550;8.822;2022-07-09T13:34:27;1.90;;;0.30;;
8419;SDS011;4247;48.550;8.822;2022-07-09T13:37:06;0.40;;;0.37;;
8419;SDS011;4247;48.550;8.822;2022-07-09T13:39:34;0.37;;;0.37;;
8419;SDS011;4247;48.550;8.822;2022-07-09T13:42:02;0.60;;;0.50;;
8419;SDS011;4247;48.550;8.822;2022-07-09T13:44:29;1.03;;;0.40;;
8419;SDS011;4247;48.550;8.822;2022-07-09T13:46:57;0.53;;;0.47;;
8419;SDS011;4247;48.550;8.822;2022-07-09T13:49:24;3.60;;;0.30;;
8419;SDS011;4247;48.550;8.822;2022-07-09T13:51:51;2.13;;;0.40;;
8419;SDS011;4247;48.550;8.822;2022-07-09T13:54:17;0.47;;;0.30;;
8419;SDS011;4247;48.550;8.822;2022-07-09T13:56:46;0.20;;;0.20;;
8419;SDS011;4247;48.550;8.822;2022-07-09T13:59:13;0.43;;;0.40;;
8419;SDS011;4247;48.550;8.822;2022-07-09T14:01:40;0.30;;;0.30;;
8419;SDS011;4247;48.550;8.822;2022-07-09T14:04:06;0.90;;;0.40;;
8419;SDS011;4247;48.550;8.822;2022-07-09T14:06:33;3.37;;;0.53;;
8419;SDS011;4247;48.550;8.822;2022-07-09T14:09:03;2.77;;;0.47;;
8419;SDS011;4247;48.550;8.822;2022-07-09T14:11:30;0.30;;;0.30;;
8419;SDS011;4247;48.550;8.822;2022-07-09T14:13:58;1.40;;;0.40;;
8419;SDS011;4247;48.550;8.822;2022-07-09T14:16:25;0.30;;;0.30;;
8419;SDS011;4247;48.550;8.822;2022-07-09T14:18:52;5.27;;;1.40;;
8419;SDS011;4247;48.550;8.822;2022-07-09T14:21:20;0.50;;;0.30;;
8419;SDS011;4247;48.550;8.822;2022-07-09T14:23:47;1.57;;;0.33;;
8419;SDS011;4247;48.550;8.822;2022-07-09T14:26:14;1.37;;;0.30;;
8419;SDS011;4247;48.550;8.822;2022-07-09T14:28:41;0.93;;;0.40;;
8419;SDS011;4247;48.550;8.822;2022-07-09T14:31:12;0.40;;;0.30;;
8419;SDS011;4247;48.550;8.822;2022-07-09T14:33:39;0.70;;;0.50;;
8419;SDS011;4247;48.550;8.822;2022-07-09T14:36:06;1.07;;;0.50;;
8419;SDS011;4247;48.550;8.822;2022-07-09T14:38:33;0.37;;;0.30;;
8419;SDS011;4247;48.550;8.822;2022-07-09T14:41:01;0.93;;;0.60;;
8419;SDS011;4247;48.550;8.822;2022-07-09T14:43:29;0.50;;;0.30;;
8419;SDS011;4247;48.550;8.822;2022-07-09T14:45:56;1.83;;;0.53;;
8419;SDS011;4247;48.550;8.822;2022-07-09T14:48:24;1.00;;;0.57;;
8419;SDS011;4247;48.550;8.822;2022-07-09T14:50:51;0.80;;;0.30;;
8419;SDS011;4247;48.550;8.822;2022-07-09T14:53:18;0.30;;;0.30;;
8419;SDS011;4247;48.550;8.822;2022-07-09T14:55:45;0.40;;;0.37;;
8419;SDS011;4247;48.550;8.822;2022-07-09T14:58:12;0.93;;;0.43;;
8419;SDS011;4247;48.550;8.822;2022-07-09T15:00:39;1.80;;;0.67;;
8419;SDS011;4247;48.550;8.822;2022-07-09T15:03:06;0.90;;;0.50;;
8419;SDS011;4247;48.550;8.822;2022-07-09T15:05:34;0.40;;;0.40;;
8419;SDS011;4247;48.550;8.822;2022-07-09T15:08:01;0.97;;;0.40;;
8419;SDS011;4247;48.550;8.822;2022-07-09T15:10:29;0.57;;;0.50;;
8419;SDS011;4247;48.550;8.822;2022-07-09T15:13:11;0.30;;;0.30;;
8419;SDS011;4247;48.550;8.822;2022-07-09T15:15:37;0.97;;;0.40;;
8419;SDS011;4247;48.550;8.822;2022-07-09T15:18:04;1.10;;;0.50;;
8419;SDS011;4247;48.550;8.822;2022-07-09T15:20:32;0.37;;;0.30;;